Time;durP1;ratioP1;P1;durP2;ratioP2;P2;SDS_P1;SDS_P2;PMS_P1;PMS_P2;Temp;Humidity;BMP_temperature;BMP_pressure;BME280_temperature;BME280_humidity;BME280_pressure;Samples;Min_cycle;Max_cycle;Signal;HPM_P1;HPM_P2
2024/02/12 00:01:59;;;;;;;27.25;10.23;;;9.90;88.60;;;;;;9176516;19;20006;-68
2024/02/12 00:05:10;;;;;;;24.70;10.40;;;9.90;88.50;;;;;;9171169;19;20022;-68
2024/02/12 00:08:18;;;;;;;19.52;9.85;;;9.90;88.60;;;;;;9173053;19;20023;-68
2024/02/12 00:11:24;;;;;;;21.27;10.32;;;9.90;88.50;;;;;;9174932;19;20025;-68
2024/02/12 00:14:31;;;;;;;23.65;10.93;;;9.90;88.70;;;;;;9174649;19;20269;-68
2024/02/12 00:17:37;;;;;;;31.95;11.07;;;9.90;88.50;;;;;;9173204;19;20010;-68
2024/02/12 00:20:48;;;;;;;21.60;10.80;;;9.90;88.50;;;;;;9174179;19;20369;-68
2024/02/12 00:23:53;;;;;;;31.15;11.27;;;9.90;88.60;;;;;;9173206;19;20011;-68
2024/02/12 00:27:02;;;;;;;25.55;11.18;;;9.90;88.60;;;;;;9175073;19;20029;-68
2024/02/12 00:30:12;;;;;;;27.77;12.52;;;9.80;88.60;;;;;;9174098;19;20032;-69
2024/02/12 00:33:20;;;;;;;22.90;11.88;;;9.80;88.60;;;;;;9175404;19;20026;-68
2024/02/12 00:36:28;;;;;;;25.88;11.63;;;9.80;88.60;;;;;;9174696;19;20022;-68
2024/02/12 00:39:35;;;;;;;30.88;13.07;;;9.80;88.60;;;;;;9172409;19;20019;-68
2024/02/12 00:42:41;;;;;;;24.30;11.77;;;9.90;88.70;;;;;;9175345;19;20365;-68
2024/02/12 00:45:49;;;;;;;29.23;12.45;;;9.90;88.90;;;;;;9183531;19;20033;-69
2024/02/12 00:48:56;;;;;;;19.80;10.63;;;9.80;88.90;;;;;;9183481;19;20014;-68
2024/02/12 00:52:07;;;;;;;25.88;11.65;;;9.90;89.20;;;;;;9183520;19;20018;-68
2024/02/12 00:55:15;;;;;;;27.45;12.07;;;9.80;88.80;;;;;;9184296;19;20510;-68
2024/02/12 00:58:30;;;;;;;21.35;10.80;;;9.80;89.00;;;;;;9183871;19;20017;-67
2024/02/12 01:01:37;;;;;;;23.23;11.35;;;9.70;88.90;;;;;;9182116;19;20074;-68
2024/02/12 01:04:46;;;;;;;22.33;11.27;;;9.70;89.30;;;;;;9174690;19;20107;-68
2024/02/12 01:07:55;;;;;;;24.33;11.48;;;9.70;89.00;;;;;;9181016;19;20017;-68
2024/02/12 01:11:03;;;;;;;24.33;11.68;;;9.70;88.80;;;;;;9182107;19;20559;-68
2024/02/12 01:14:08;;;;;;;23.98;10.98;;;9.60;88.80;;;;;;9181359;19;20024;-69
2024/02/12 01:17:21;;;;;;;22.63;11.43;;;9.60;88.50;;;;;;9182887;19;20019;-68
2024/02/12 01:20:26;;;;;;;24.08;11.48;;;9.70;88.60;;;;;;9182748;19;20482;-69
2024/02/12 01:23:36;;;;;;;28.92;11.50;;;9.50;88.60;;;;;;9180015;19;20440;-69
2024/02/12 01:26:42;;;;;;;29.75;13.43;;;9.50;88.60;;;;;;9182928;19;20011;-69
2024/02/12 01:29:50;;;;;;;24.90;11.90;;;9.40;88.70;;;;;;9181025;19;20026;-69
2024/02/12 01:32:56;;;;;;;22.75;11.35;;;9.40;88.60;;;;;;9182233;19;20375;-69
2024/02/12 01:36:05;;;;;;;25.17;12.27;;;9.30;88.50;;;;;;9179259;19;20018;-69
2024/02/12 01:39:14;;;;;;;31.08;13.00;;;9.30;88.40;;;;;;9181816;19;20094;-69
2024/02/12 01:42:22;;;;;;;26.50;12.70;;;9.30;88.50;;;;;;9180712;19;20365;-69
2024/02/12 01:45:27;;;;;;;24.50;12.20;;;9.20;88.50;;;;;;9177089;19;20014;-69
2024/02/12 01:48:36;;;;;;;28.17;12.45;;;9.20;88.80;;;;;;9181729;19;20025;-69
2024/02/12 01:51:44;;;;;;;26.73;13.23;;;9.20;88.70;;;;;;9179579;19;20025;-69
2024/02/12 01:54:55;;;;;;;27.73;13.05;;;9.20;88.70;;;;;;9179399;19;20494;-68
2024/02/12 01:58:00;;;;;;;35.60;14.25;;;9.10;88.50;;;;;;9181464;19;20022;-69
2024/02/12 02:01:14;;;;;;;37.28;14.27;;;9.10;88.60;;;;;;9180267;19;20010;-69
2024/02/12 02:04:23;;;;;;;27.85;14.23;;;9.10;88.80;;;;;;9173391;19;20440;-69
2024/02/12 02:07:31;;;;;;;34.05;14.32;;;9.20;88.60;;;;;;9178947;19;20010;-69
2024/02/12 02:10:39;;;;;;;33.28;14.48;;;9.20;88.70;;;;;;9180140;19;20015;-69
2024/02/12 02:13:47;;;;;;;35.63;15.75;;;9.10;88.60;;;;;;9179751;19;20022;-69
2024/02/12 02:17:13;;;;;;;38.97;15.85;;;9.10;88.70;;;;;;9179954;19;20018;-69
2024/02/12 02:20:23;;;;;;;44.38;16.40;;;9.10;88.80;;;;;;9179156;19;20014;-69
2024/02/12 02:23:29;;;;;;;35.90;16.63;;;9.00;88.80;;;;;;9178885;19;20010;-69
2024/02/12 02:26:40;;;;;;;44.83;17.13;;;9.10;88.90;;;;;;9179741;19;20483;-69
2024/02/12 02:29:45;;;;;;;35.80;16.85;;;9.10;89.00;;;;;;9178644;19;20044;-69
2024/02/12 02:32:54;;;;;;;34.33;16.83;;;9.10;89.00;;;;;;9175415;19;20025;-69
2024/02/12 02:36:01;;;;;;;38.05;15.73;;;9.10;89.00;;;;;;9178172;19;20031;-70
2024/02/12 02:39:09;;;;;;;31.80;16.10;;;9.10;88.90;;;;;;9178815;19;20040;-69
2024/02/12 02:42:17;;;;;;;41.92;15.55;;;9.10;88.80;;;;;;9179441;19;20006;-69
2024/02/12 02:45:25;;;;;;;38.60;15.68;;;9.10;89.00;;;;;;9175658;19;20007;-69
2024/02/12 02:48:33;;;;;;;42.00;17.00;;;9.10;88.90;;;;;;9178556;19;20086;-69
2024/02/12 02:51:41;;;;;;;41.10;16.92;;;9.20;89.00;;;;;;9176657;19;20025;-69
2024/02/12 02:54:47;;;;;;;34.60;15.68;;;9.20;89.00;;;;;;9177290;19;20018;-69
2024/02/12 02:58:01;;;;;;;44.42;16.73;;;9.10;89.00;;;;;;9176776;19;20038;-69
2024/02/12 03:01:08;;;;;;;32.92;16.30;;;9.10;89.00;;;;;;9176731;19;20019;-69
2024/02/12 03:04:15;;;;;;;33.40;16.17;;;9.10;88.90;;;;;;9172427;19;20022;-69
2024/02/12 03:07:21;;;;;;;45.20;17.73;;;9.20;89.00;;;;;;9176359;19;20064;-69
2024/02/12 03:10:28;;;;;;;33.17;14.95;;;9.10;89.00;;;;;;9177293;19;20022;-69
2024/02/12 03:13:37;;;;;;;41.60;17.35;;;9.10;89.00;;;;;;9177393;19;20014;-69
2024/02/12 03:16:45;;;;;;;43.83;16.48;;;9.10;88.90;;;;;;9177108;19;20031;-69
2024/02/12 03:19:50;;;;;;;36.25;16.73;;;9.20;89.00;;;;;;9176867;19;20396;-69
2024/02/12 03:22:58;;;;;;;33.03;17.15;;;9.10;89.00;;;;;;9176735;19;20019;-69
2024/02/12 03:26:06;;;;;;;39.10;17.45;;;9.10;89.00;;;;;;9174787;19;20472;-69
2024/02/12 03:29:16;;;;;;;39.70;17.25;;;9.10;89.20;;;;;;9175169;19;20015;-69
2024/02/12 03:32:22;;;;;;;42.08;17.90;;;9.10;89.10;;;;;;9176278;19;20064;-69
2024/02/12 03:35:29;;;;;;;40.72;17.02;;;9.20;89.20;;;;;;9176582;19;20122;-69
2024/02/12 03:38:36;;;;;;;42.78;17.33;;;9.10;89.10;;;;;;9175324;19;20018;-69
2024/02/12 03:41:43;;;;;;;35.17;16.77;;;9.20;89.40;;;;;;9175207;19;20934;-69
2024/02/12 03:44:52;;;;;;;40.97;17.92;;;9.20;89.10;;;;;;9175484;19;20028;-69
2024/02/12 03:48:00;;;;;;;35.92;16.70;;;9.10;89.00;;;;;;9177499;19;20014;-69
2024/02/12 04:01:19;;;;;;;35.70;17.52;;;9.10;89.00;;;;;;9175360;19;20021;-68
2024/02/12 04:04:24;;;;;;;38.17;19.33;;;9.20;89.10;;;;;;9169624;19;20010;-68
2024/02/12 04:07:32;;;;;;;48.30;20.15;;;9.10;89.10;;;;;;9174509;19;20379;-68
2024/02/12 04:10:37;;;;;;;39.83;18.75;;;9.10;89.10;;;;;;9175539;19;20475;-71
2024/02/12 04:13:46;;;;;;;50.97;20.15;;;9.10;89.10;;;;;;9174447;19;20025;-69
2024/02/12 04:16:55;;;;;;;49.97;21.33;;;9.10;89.00;;;;;;9173930;19;20018;-69
2024/02/12 04:20:05;;;;;;;52.05;21.85;;;9.00;89.10;;;;;;9177326;19;20481;-68
2024/02/12 04:23:15;;;;;;;41.67;19.83;;;9.00;89.00;;;;;;9175531;19;20007;-68
2024/02/12 04:26:23;;;;;;;48.25;20.58;;;9.00;89.10;;;;;;9174380;19;20101;-68
2024/02/12 04:29:28;;;;;;;42.25;21.50;;;9.00;89.10;;;;;;9175854;19;20021;-68
2024/02/12 04:32:39;;;;;;;51.22;21.50;;;9.00;89.20;;;;;;9175114;19;20022;-69
2024/02/12 04:35:45;;;;;;;46.47;20.77;;;9.10;89.30;;;;;;9172813;19;20350;-69
2024/02/12 04:38:53;;;;;;;52.85;21.90;;;9.00;89.40;;;;;;9173557;19;20018;-68
2024/02/12 04:41:59;;;;;;;46.60;20.77;;;9.00;89.20;;;;;;9172790;19;20066;-68
2024/02/12 04:45:09;;;;;;;40.45;19.77;;;9.10;89.20;;;;;;9171833;19;20010;-68
2024/02/12 04:48:18;;;;;;;49.03;20.40;;;9.00;89.30;;;;;;9173721;19;20047;-68
2024/02/12 04:51:25;;;;;;;48.70;23.30;;;9.00;89.30;;;;;;9174129;19;20022;-69
2024/02/12 04:54:34;;;;;;;52.85;21.77;;;9.00;89.30;;;;;;9172955;19;20018;-70
2024/02/12 04:57:42;;;;;;;46.22;22.20;;;9.10;89.50;;;;;;9173007;19;20024;-68
2024/02/12 05:00:47;;;;;;;46.20;20.35;;;9.10;89.30;;;;;;9173284;19;20399;-69
2024/02/12 05:03:59;;;;;;;45.65;22.02;;;9.10;89.40;;;;;;9168882;19;20025;-69
2024/02/12 05:07:06;;;;;;;43.08;21.83;;;9.10;89.40;;;;;;9168392;19;20018;-69
2024/02/12 05:10:15;;;;;;;40.75;19.80;;;9.10;89.30;;;;;;9173520;19;20364;-69
2024/02/12 05:13:29;;;;;;;44.67;21.20;;;9.10;89.30;;;;;;9173855;19;20014;-69
2024/02/12 05:16:37;;;;;;;44.50;21.30;;;9.10;89.40;;;;;;9173064;19;20014;-69
2024/02/12 05:23:06;;;;;;;46.90;21.88;;;9.10;89.40;;;;;;9172928;19;20015;-69
2024/02/12 05:26:11;;;;;;;46.30;22.27;;;9.00;89.30;;;;;;9171035;19;20011;-69
2024/02/12 05:29:20;;;;;;;51.75;23.25;;;9.20;89.60;;;;;;9177346;19;20022;-69
2024/02/12 05:32:27;;;;;;;50.88;22.48;;;9.10;90.00;;;;;;9181158;19;20036;-69
2024/02/12 05:35:40;;;;;;;51.80;23.35;;;9.10;89.50;;;;;;9181934;19;20026;-69
2024/02/12 05:38:46;;;;;;;48.67;23.63;;;9.10;89.50;;;;;;9179512;19;20014;-70
2024/02/12 05:41:53;;;;;;;48.05;22.20;;;9.10;89.60;;;;;;9182056;19;20029;-70
2024/02/12 05:44:59;;;;;;;53.75;24.25;;;9.10;89.50;;;;;;9180844;19;20019;-69
2024/02/12 05:48:08;;;;;;;53.03;23.02;;;9.10;89.50;;;;;;9181209;19;20015;-69
2024/02/12 05:51:16;;;;;;;53.17;22.40;;;9.10;89.40;;;;;;9181777;19;20484;-69
2024/02/12 05:54:25;;;;;;;47.88;22.90;;;9.20;89.60;;;;;;9180528;19;20014;-69
2024/02/12 05:57:30;;;;;;;50.88;22.10;;;9.10;89.30;;;;;;9180577;19;20022;-69
2024/02/12 06:00:38;;;;;;;48.40;22.30;;;9.20;89.40;;;;;;9180100;19;20480;-69
2024/02/12 06:03:44;;;;;;;45.28;21.98;;;9.10;89.40;;;;;;9180887;19;20675;-69
2024/02/12 06:06:54;;;;;;;51.45;22.63;;;9.10;89.50;;;;;;9171018;19;20025;-69
2024/02/12 06:10:00;;;;;;;50.97;22.75;;;9.00;89.40;;;;;;9180670;19;20357;-69
2024/02/12 06:13:07;;;;;;;52.92;23.35;;;9.10;89.50;;;;;;9180471;19;20029;-69
2024/02/12 06:16:13;;;;;;;46.05;20.70;;;9.10;89.50;;;;;;9178863;19;20019;-69
2024/02/12 06:19:21;;;;;;;44.47;21.77;;;9.00;89.40;;;;;;9178879;19;20495;-66
2024/02/12 06:22:29;;;;;;;52.45;21.88;;;9.00;89.40;;;;;;9180058;19;20025;-69
2024/02/12 06:25:37;;;;;;;49.70;22.42;;;9.00;89.30;;;;;;9178826;19;20029;-69
2024/02/12 06:28:43;;;;;;;50.80;23.75;;;8.90;89.30;;;;;;9179703;19;20006;-69
2024/02/12 06:31:50;;;;;;;54.03;23.38;;;9.00;89.20;;;;;;9178351;19;20019;-69
2024/02/12 06:34:56;;;;;;;53.35;24.40;;;8.90;89.20;;;;;;9179555;19;20014;-69
2024/02/12 06:38:06;;;;;;;52.08;24.63;;;8.90;89.20;;;;;;9178521;19;20376;-69
2024/02/12 06:41:11;;;;;;;57.13;23.80;;;8.80;89.20;;;;;;9180144;19;20013;-69
2024/02/12 06:44:20;;;;;;;58.55;23.67;;;8.80;89.20;;;;;;9179522;19;20479;-69
2024/02/12 06:47:26;;;;;;;60.10;25.10;;;8.80;89.20;;;;;;9174238;19;20018;-69
2024/02/12 06:50:34;;;;;;;59.67;26.23;;;8.80;89.30;;;;;;9178978;19;20018;-68
2024/02/12 06:54:02;;;;;;;52.97;24.40;;;8.70;89.30;;;;;;9176818;19;20029;-68
2024/02/12 06:57:09;;;;;;;55.10;25.23;;;8.80;89.50;;;;;;9177941;19;20022;-68
2024/02/12 07:00:19;;;;;;;55.60;24.83;;;8.70;89.40;;;;;;9178353;19;20476;-68
2024/02/12 07:03:28;;;;;;;57.75;25.02;;;8.70;89.40;;;;;;9178693;19;20029;-68
2024/02/12 07:06:34;;;;;;;60.05;25.95;;;8.70;89.30;;;;;;9173003;19;20820;-69
2024/02/12 07:09:45;;;;;;;61.90;26.83;;;8.70;89.40;;;;;;9176441;19;20010;-68
2024/02/12 07:12:51;;;;;;;59.28;26.23;;;8.70;89.30;;;;;;9170018;19;20019;-68
2024/02/12 07:15:59;;;;;;;60.75;26.50;;;8.70;89.40;;;;;;9169792;19;20021;-68
2024/02/12 07:19:04;;;;;;;66.30;25.83;;;8.70;89.30;;;;;;9175305;19;20015;-68
2024/02/12 07:22:12;;;;;;;56.53;24.42;;;8.80;89.50;;;;;;9177787;19;20018;-69
2024/02/12 07:25:20;;;;;;;61.40;24.90;;;8.70;89.30;;;;;;9177982;19;20795;-68
2024/02/12 07:28:31;;;;;;;55.95;24.58;;;8.60;89.30;;;;;;9173861;19;20010;-69
2024/02/12 07:31:37;;;;;;;63.53;24.73;;;8.70;89.30;;;;;;9177459;19;20014;-69
2024/02/12 07:34:44;;;;;;;63.85;26.13;;;8.70;89.30;;;;;;9175184;19;20068;-68
2024/02/12 07:37:51;;;;;;;58.13;25.70;;;8.60;89.30;;;;;;9176286;19;20018;-68
2024/02/12 07:41:02;;;;;;;63.17;26.27;;;8.60;89.40;;;;;;9175398;19;20021;-68
2024/02/12 07:44:10;;;;;;;58.50;25.38;;;8.60;89.50;;;;;;9175877;19;20015;-69
2024/02/12 07:47:18;;;;;;;54.58;24.90;;;8.60;89.50;;;;;;9174082;19;20467;-69
2024/02/12 07:50:23;;;;;;;62.65;25.10;;;8.60;89.50;;;;;;9175545;19;20465;-68
2024/02/12 07:53:31;;;;;;;55.25;25.02;;;8.60;89.70;;;;;;9173442;19;20018;-69
2024/02/12 07:56:39;;;;;;;53.53;23.65;;;8.60;89.60;;;;;;9175558;19;20053;-68
2024/02/12 07:59:47;;;;;;;51.78;22.98;;;8.70;89.60;;;;;;9175406;19;20011;-68
2024/02/12 08:02:53;;;;;;;53.90;22.83;;;8.60;89.40;;;;;;9173709;19;20014;-68
2024/02/12 08:06:01;;;;;;;54.88;24.50;;;8.60;89.60;;;;;;9171316;19;20014;-68
2024/02/12 08:09:07;;;;;;;63.33;24.55;;;8.60;89.50;;;;;;9173543;19;20018;-68
2024/02/12 08:12:19;;;;;;;61.58;24.13;;;8.60;89.60;;;;;;9176332;19;20026;-69
2024/02/12 08:15:25;;;;;;;57.60;23.85;;;8.60;89.40;;;;;;9174080;19;20010;-68
2024/02/12 08:18:52;;;;;;;63.92;23.17;;;8.70;89.50;;;;;;9173429;19;20021;-68
2024/02/12 08:21:58;;;;;;;45.85;21.48;;;8.60;89.40;;;;;;9175578;19;20018;-68
2024/02/12 08:25:06;;;;;;;61.63;21.48;;;8.60;89.40;;;;;;9174283;19;20030;-68
2024/02/12 08:28:15;;;;;;;49.25;22.17;;;8.60;89.40;;;;;;9172443;19;20078;-69
2024/02/12 08:31:23;;;;;;;56.13;23.05;;;8.60;89.60;;;;;;9174443;19;20015;-69
2024/02/12 08:34:28;;;;;;;54.78;22.38;;;8.60;89.40;;;;;;9172552;19;20407;-68
2024/02/12 08:37:39;;;;;;;55.70;22.95;;;8.60;89.60;;;;;;9174028;19;20014;-69
2024/02/12 08:40:45;;;;;;;54.85;23.23;;;8.60;89.70;;;;;;9171874;19;20007;-68
2024/02/12 08:43:56;;;;;;;51.80;22.02;;;8.60;89.60;;;;;;9172099;19;20021;-68
2024/02/12 08:47:02;;;;;;;60.65;22.63;;;8.60;89.60;;;;;;9170575;19;20380;-68
2024/02/12 08:50:11;;;;;;;52.10;23.60;;;8.70;89.60;;;;;;9172627;19;20014;-68
2024/02/12 08:53:17;;;;;;;56.65;21.73;;;8.60;89.50;;;;;;9174646;19;20014;-68
2024/02/12 08:56:27;;;;;;;58.60;22.23;;;8.70;89.60;;;;;;9173730;19;20014;-69
2024/02/12 08:59:35;;;;;;;60.42;23.52;;;8.60;89.50;;;;;;9173721;19;20073;-68
2024/02/12 09:02:43;;;;;;;55.17;22.67;;;8.70;89.70;;;;;;9167930;19;20781;-69
2024/02/12 09:05:49;;;;;;;51.50;22.65;;;8.70;89.60;;;;;;9176339;19;20015;-69
2024/02/12 09:08:57;;;;;;;68.20;24.27;;;8.70;89.60;;;;;;9178252;19;20018;-68
2024/02/12 09:12:02;;;;;;;56.88;23.63;;;8.70;89.70;;;;;;9184837;19;20029;-68
2024/02/12 09:15:14;;;;;;;53.90;25.55;;;8.70;89.70;;;;;;9181257;19;20022;-68
2024/02/12 09:18:19;;;;;;;63.05;25.48;;;8.80;89.70;;;;;;9181394;19;20358;-68
2024/02/12 09:21:28;;;;;;;52.42;23.58;;;8.80;89.70;;;;;;9180359;19;20460;-68
2024/02/12 09:24:36;;;;;;;59.65;24.35;;;8.80;89.70;;;;;;9181907;19;20011;-69
2024/02/12 09:27:46;;;;;;;64.95;25.30;;;8.80;89.70;;;;;;9178171;19;20026;-68
2024/02/12 09:30:57;;;;;;;61.55;24.73;;;8.90;89.70;;;;;;9180830;19;20081;-68
2024/02/12 09:34:06;;;;;;;59.63;24.33;;;8.90;89.80;;;;;;9180166;19;20025;-68
2024/02/12 09:37:12;;;;;;;63.22;24.48;;;8.80;89.70;;;;;;9178040;19;20086;-68
2024/02/12 09:40:21;;;;;;;59.40;24.58;;;8.90;89.80;;;;;;9180295;19;20098;-69
2024/02/12 09:43:35;;;;;;;54.47;23.73;;;8.90;89.80;;;;;;9180744;19;20390;-69
2024/02/12 09:46:48;;;;;;;58.60;25.58;;;9.00;89.80;;;;;;9180060;19;20019;-68
2024/02/12 09:49:55;;;;;;;55.22;23.13;;;8.90;89.70;;;;;;9177253;19;20052;-68
2024/02/12 09:53:04;;;;;;;53.03;22.80;;;9.00;89.70;;;;;;9175999;19;20010;-68
2024/02/12 09:56:10;;;;;;;54.38;22.25;;;9.10;89.80;;;;;;9179988;19;20081;-69
2024/02/12 09:59:18;;;;;;;58.35;23.98;;;9.20;89.90;;;;;;9180955;19;20342;-69
2024/02/12 10:02:27;;;;;;;54.83;22.67;;;9.10;89.90;;;;;;9180720;19;20018;-68
2024/02/12 10:05:54;;;;;;;46.65;19.67;;;9.20;89.80;;;;;;9176163;19;20363;-70
2024/02/12 10:09:20;;;;;;;46.65;21.25;;;9.20;89.80;;;;;;9177277;19;20016;-68
2024/02/12 10:12:53;;;;;;;41.38;19.23;;;9.20;89.90;;;;;;9179670;19;20097;-68
2024/02/12 10:16:19;;;;;;;46.53;19.42;;;9.20;89.90;;;;;;9178805;19;20650;-69
2024/02/12 10:19:49;;;;;;;40.47;19.85;;;9.20;89.90;;;;;;9179005;19;20038;-69
2024/02/12 10:23:15;;;;;;;44.03;18.92;;;9.40;89.80;;;;;;9179789;19;20044;-68
2024/02/12 10:26:43;;;;;;;46.47;19.05;;;9.30;89.70;;;;;;9178407;19;20026;-68
2024/02/12 10:30:10;;;;;;;47.10;20.63;;;9.30;89.60;;;;;;9174407;19;20022;-69
2024/02/12 10:33:39;;;;;;;48.90;19.73;;;9.30;89.60;;;;;;9177264;19;20025;-68
2024/02/12 10:37:09;;;;;;;41.05;18.27;;;9.40;89.60;;;;;;9178113;19;20018;-69
2024/02/12 10:40:41;;;;;;;40.65;17.23;;;9.40;89.60;;;;;;9176946;19;20025;-68
2024/02/12 10:44:09;;;;;;;40.45;17.38;;;9.50;89.60;;;;;;9174405;19;20503;-69
2024/02/12 10:47:38;;;;;;;34.75;16.67;;;9.50;90.10;;;;;;9176525;19;20015;-68
2024/02/12 10:51:04;;;;;;;48.00;17.38;;;9.50;89.70;;;;;;9175168;19;20123;-68
2024/02/12 10:54:35;;;;;;;36.25;15.40;;;9.60;89.80;;;;;;9177062;19;20472;-68
2024/02/12 10:57:43;;;;;;;33.40;16.23;;;9.60;89.70;;;;;;9176938;19;20476;-68
2024/02/12 11:00:56;;;;;;;33.90;16.48;;;9.70;89.70;;;;;;9177640;19;20018;-68
2024/02/12 11:04:09;;;;;;;33.70;14.93;;;9.80;89.80;;;;;;9172869;19;20023;-67
2024/02/12 11:07:19;;;;;;;31.75;14.90;;;9.80;89.70;;;;;;9176462;19;20010;-68
2024/02/12 11:10:27;;;;;;;32.95;15.60;;;9.90;89.70;;;;;;9175531;19;20022;-67
2024/02/12 11:13:44;;;;;;;27.48;13.93;;;10.10;89.90;;;;;;9176747;19;20018;-67
2024/02/12 11:16:53;;;;;;;38.05;15.93;;;10.10;89.70;;;;;;9176312;19;20015;-67
2024/02/12 11:20:05;;;;;;;32.70;13.10;;;10.20;89.80;;;;;;9177636;19;20022;-67
2024/02/12 11:23:11;;;;;;;30.65;13.23;;;10.30;89.70;;;;;;9177359;19;20049;-67
2024/02/12 11:26:23;;;;;;;30.45;12.35;;;10.30;89.50;;;;;;9172926;19;20499;-67
2024/02/12 11:29:28;;;;;;;29.50;13.60;;;10.40;89.40;;;;;;9174231;19;20033;-68
2024/02/12 11:32:36;;;;;;;29.35;13.77;;;10.50;89.40;;;;;;9175733;19;20021;-68
2024/02/12 11:35:42;;;;;;;32.55;13.90;;;10.50;89.30;;;;;;9173067;19;20658;-68
2024/02/12 11:38:53;;;;;;;24.13;11.57;;;10.60;89.20;;;;;;9173412;19;20360;-68
2024/02/12 11:42:02;;;;;;;26.00;11.45;;;10.70;89.20;;;;;;9176369;19;20057;-67
2024/02/12 11:45:10;;;;;;;27.92;11.80;;;10.70;89.00;;;;;;9176750;19;20015;-68
2024/02/12 11:48:18;;;;;;;26.40;11.70;;;10.80;89.10;;;;;;9172382;19;20020;-68
2024/02/12 11:51:26;;;;;;;23.20;11.82;;;10.80;89.00;;;;;;9174168;19;20477;-68
2024/02/12 11:54:39;;;;;;;26.02;11.52;;;10.90;89.10;;;;;;9172078;19;20742;-68
2024/02/12 11:57:50;;;;;;;26.08;11.90;;;11.00;89.00;;;;;;9171797;19;20022;-68
2024/02/12 12:00:57;;;;;;;21.10;10.88;;;11.00;88.80;;;;;;9171383;19;20117;-68
2024/02/12 12:04:04;;;;;;;26.23;11.75;;;11.10;88.90;;;;;;9169149;19;20014;-68
2024/02/12 12:07:19;;;;;;;26.25;11.73;;;11.10;88.90;;;;;;9174946;19;20573;-68
2024/02/12 12:10:28;;;;;;;24.88;10.40;;;11.10;88.40;;;;;;9171315;19;20496;-67
2024/02/12 12:13:36;;;;;;;25.00;10.57;;;11.10;88.40;;;;;;9173166;19;20395;-68
2024/02/12 12:16:44;;;;;;;18.27;9.75;;;11.20;88.30;;;;;;9172562;19;20017;-68
2024/02/12 12:20:12;;;;;;;21.40;10.05;;;11.20;88.40;;;;;;9171516;19;20022;-67
2024/02/12 12:23:30;;;;;;;22.25;9.80;;;11.20;88.10;;;;;;9173124;19;20034;-68
2024/02/12 12:26:36;;;;;;;18.75;8.90;;;11.30;88.30;;;;;;9175194;19;20014;-68
2024/02/12 12:29:47;;;;;;;25.00;10.13;;;11.30;88.30;;;;;;9171600;19;20394;-68
2024/02/12 12:32:53;;;;;;;22.15;10.23;;;11.30;88.10;;;;;;9174645;19;20429;-68
2024/02/12 12:36:03;;;;;;;18.67;9.38;;;11.20;88.10;;;;;;9174263;19;20050;-68
2024/02/12 12:39:16;;;;;;;19.85;8.90;;;11.30;87.90;;;;;;9171130;19;20018;-68
2024/02/12 12:42:23;;;;;;;25.17;9.30;;;11.30;88.00;;;;;;9174413;19;20424;-68
2024/02/12 12:45:32;;;;;;;19.55;9.52;;;11.30;87.90;;;;;;9172131;19;20023;-68
2024/02/12 12:48:47;;;;;;;21.45;8.68;;;11.40;87.80;;;;;;9174609;19;20703;-68
2024/02/12 12:51:52;;;;;;;23.13;8.63;;;11.40;87.80;;;;;;9170280;19;20025;-67
2024/02/12 12:55:00;;;;;;;20.33;8.52;;;11.40;87.90;;;;;;9174381;19;20014;-68
2024/02/12 12:58:06;;;;;;;19.85;7.78;;;11.40;87.70;;;;;;9174006;19;20514;-67
2024/02/12 13:01:17;;;;;;;16.05;6.97;;;11.50;87.70;;;;;;9173357;19;20480;-68
2024/02/12 13:04:28;;;;;;;24.98;8.27;;;11.60;87.70;;;;;;9168487;19;20018;-68
2024/02/12 13:07:56;;;;;;;13.00;6.93;;;11.50;87.60;;;;;;9171111;19;20006;-68
2024/02/12 13:11:21;;;;;;;10.98;6.25;;;11.60;87.50;;;;;;9169494;19;20021;-68
2024/02/12 13:14:29;;;;;;;12.88;5.50;;;11.60;87.50;;;;;;9171589;19;20006;-68
2024/02/12 13:17:38;;;;;;;14.52;6.60;;;11.60;87.40;;;;;;9173431;19;20023;-68
2024/02/12 13:20:46;;;;;;;16.08;5.32;;;11.60;87.10;;;;;;9169806;19;20010;-68
2024/02/12 13:23:54;;;;;;;12.05;4.90;;;11.60;87.10;;;;;;9165020;19;20062;-68
2024/02/12 13:27:02;;;;;;;12.93;5.40;;;11.70;87.00;;;;;;9166878;19;20017;-68
2024/02/12 13:30:09;;;;;;;11.70;4.60;;;11.60;86.80;;;;;;9165872;19;20350;-68
2024/02/12 13:33:19;;;;;;;14.63;5.75;;;11.60;86.60;;;;;;9166705;19;20018;-68
2024/02/12 13:36:27;;;;;;;15.82;5.70;;;11.70;86.70;;;;;;9168730;19;20026;-68
2024/02/12 13:39:35;;;;;;;14.98;5.90;;;11.60;86.50;;;;;;9167484;19;20038;-67
2024/02/12 13:42:41;;;;;;;16.48;5.60;;;11.70;86.40;;;;;;9167147;19;20018;-68
2024/02/12 13:45:49;;;;;;;13.05;4.63;;;11.70;86.50;;;;;;9168703;19;20019;-68
2024/02/12 13:48:58;;;;;;;8.75;3.75;;;11.70;86.40;;;;;;9170478;19;20102;-68
2024/02/12 13:52:07;;;;;;;10.55;4.35;;;11.60;86.20;;;;;;9176954;19;20011;-68
2024/02/12 13:55:13;;;;;;;12.68;4.32;;;11.60;86.10;;;;;;9182062;19;20372;-68
2024/02/12 13:58:21;;;;;;;8.00;3.55;;;11.60;86.30;;;;;;9180906;19;20046;-68
2024/02/12 14:01:30;;;;;;;10.15;4.00;;;11.60;86.10;;;;;;9179991;19;20056;-68
2024/02/12 14:04:56;;;;;;;10.57;2.95;;;11.60;86.00;;;;;;9177205;19;20022;-67
2024/02/12 14:08:02;;;;;;;10.20;3.00;;;11.60;86.00;;;;;;9178796;19;20021;-68
2024/02/12 14:11:10;;;;;;;8.43;2.78;;;11.60;85.90;;;;;;9177184;19;20026;-67
2024/02/12 14:14:18;;;;;;;8.65;2.97;;;11.60;85.70;;;;;;9179874;19;20006;-67
2024/02/12 14:17:26;;;;;;;12.60;3.35;;;11.50;85.60;;;;;;9175119;19;20018;-68
2024/02/12 14:20:34;;;;;;;7.63;2.47;;;11.50;85.60;;;;;;9176795;19;20019;-68
2024/02/12 14:23:42;;;;;;;9.93;2.67;;;11.50;85.50;;;;;;9174467;19;20464;-67
2024/02/12 14:26:48;;;;;;;6.47;3.38;;;11.50;85.50;;;;;;9177588;19;20024;-67
2024/02/12 14:30:11;;;;;;;10.60;4.18;;;11.50;85.30;;;;;;9179660;19;20594;-68
2024/02/12 14:33:31;;;;;;;14.37;3.30;;;11.40;85.20;;;;;;9179453;19;20013;-68
2024/02/12 14:36:42;;;;;;;5.82;2.33;;;11.50;85.30;;;;;;9178712;19;20022;-68
2024/02/12 14:39:47;;;;;;;11.55;2.70;;;11.40;85.40;;;;;;9178243;19;20160;-67
2024/02/12 14:42:55;;;;;;;6.20;2.25;;;11.40;85.20;;;;;;9172568;19;20018;-67
2024/02/12 14:46:01;;;;;;;6.75;2.28;;;11.30;85.10;;;;;;9175651;19;20022;-67
2024/02/12 14:49:28;;;;;;;8.38;1.95;;;11.30;84.90;;;;;;9178670;19;20026;-67
2024/02/12 14:52:43;;;;;;;6.45;1.77;;;11.40;85.00;;;;;;9168059;19;20021;-67
2024/02/12 14:55:51;;;;;;;12.27;2.38;;;11.40;84.90;;;;;;9173175;19;20114;-67
2024/02/12 14:58:56;;;;;;;3.53;2.10;;;11.30;84.80;;;;;;9171190;19;20026;-68
2024/02/12 15:02:05;;;;;;;12.40;2.15;;;11.20;85.00;;;;;;9170973;19;20010;-67
2024/02/12 15:05:15;;;;;;;19.15;3.05;;;11.20;84.70;;;;;;9170008;19;20018;-67
2024/02/12 15:08:26;;;;;;;8.13;3.08;;;11.20;84.70;;;;;;9169369;19;20029;-68
2024/02/12 15:11:32;;;;;;;8.95;2.60;;;11.20;84.70;;;;;;9173937;19;20022;-67
2024/02/12 15:14:40;;;;;;;9.43;2.58;;;11.30;84.70;;;;;;9171722;19;20022;-67
2024/02/12 15:17:46;;;;;;;7.47;3.13;;;11.10;84.40;;;;;;9170996;19;20019;-68
2024/02/12 15:20:54;;;;;;;8.15;2.13;;;11.10;84.40;;;;;;9172434;19;20015;-67
2024/02/12 15:24:02;;;;;;;10.70;2.70;;;11.10;84.50;;;;;;9174977;19;20026;-68
2024/02/12 15:27:10;;;;;;;4.28;1.92;;;11.10;84.40;;;;;;9171221;19;20054;-67
2024/02/12 15:30:18;;;;;;;3.63;1.50;;;11.00;84.10;;;;;;9174974;19;20018;-68
2024/02/12 15:33:32;;;;;;;8.60;2.58;;;10.90;84.00;;;;;;9173736;19;20023;-68
2024/02/12 15:36:42;;;;;;;4.00;1.50;;;10.80;84.00;;;;;;9167213;19;20051;-68
2024/02/12 15:39:52;;;;;;;1.38;0.82;;;10.80;84.00;;;;;;9172924;19;20017;-68
2024/02/12 15:43:01;;;;;;;4.18;0.90;;;10.60;83.90;;;;;;9173990;19;20018;-68
2024/02/12 15:46:10;;;;;;;1.48;0.68;;;10.50;84.10;;;;;;9176873;19;20019;-68
2024/02/12 15:49:15;;;;;;;3.60;0.50;;;10.40;84.20;;;;;;9175516;19;20098;-68
2024/02/12 15:52:25;;;;;;;4.55;0.90;;;10.40;84.40;;;;;;9175390;19;20606;-68
2024/02/12 15:55:33;;;;;;;2.75;0.70;;;10.30;84.30;;;;;;9174709;19;20021;-68
2024/02/12 15:58:42;;;;;;;1.27;0.70;;;10.30;84.40;;;;;;9175972;19;20131;-68
2024/02/12 16:01:48;;;;;;;1.92;0.63;;;10.30;84.40;;;;;;9174128;19;20021;-68
2024/02/12 16:04:55;;;;;;;0.90;0.70;;;10.20;84.40;;;;;;9166618;19;20014;-68
2024/02/12 16:08:01;;;;;;;4.40;1.10;;;10.10;84.20;;;;;;9171011;19;20810;-68
2024/02/12 16:11:13;;;;;;;1.77;0.70;;;10.10;84.30;;;;;;9170310;19;20018;-68
2024/02/12 16:14:25;;;;;;;2.13;0.90;;;10.20;84.30;;;;;;9169941;19;20633;-68
2024/02/12 16:17:33;;;;;;;2.40;1.00;;;10.00;84.40;;;;;;9172934;19;20019;-68
2024/02/12 16:20:40;;;;;;;2.03;0.90;;;9.90;84.30;;;;;;9163924;19;20041;-69
2024/02/12 16:23:49;;;;;;;1.88;0.90;;;9.90;84.30;;;;;;9173048;19;20014;-68
2024/02/12 16:26:57;;;;;;;3.05;0.80;;;9.90;84.50;;;;;;9170825;19;20011;-68
2024/02/12 16:30:05;;;;;;;1.55;0.93;;;9.80;84.40;;;;;;9172049;19;20002;-70